sensor_id;sensor_type;location;lat;lon;timestamp;pressure;altitude;pressure_sealevel;temperature;humidity
75788;BME280;64406;50.024;14.492;2023-11-21T00:00:25;97315.63;;;7.25;89.84
75788;BME280;64406;50.024;14.492;2023-11-21T00:03:11;97318.38;;;7.20;89.52
75788;BME280;64406;50.024;14.492;2023-11-21T00:05:40;97314.38;;;7.17;90.50
75788;BME280;64406;50.024;14.492;2023-11-21T00:08:07;97322.97;;;7.14;91.05
75788;BME280;64406;50.024;14.492;2023-11-21T00:10:34;97316.84;;;7.08;90.90
75788;BME280;64406;50.024;14.492;2023-11-21T00:13:00;97317.66;;;7.04;90.92
75788;BME280;64406;50.024;14.492;2023-11-21T00:15:27;97318.75;;;7.03;90.79
75788;BME280;64406;50.024;14.492;2023-11-21T00:17:53;97311.81;;;6.97;91.47
75788;BME280;64406;50.024;14.492;2023-11-21T00:20:18;97311.28;;;7.00;92.20
75788;BME280;64406;50.024;14.492;2023-11-21T00:22:44;97302.16;;;7.01;91.58
75788;BME280;64406;50.024;14.492;2023-11-21T00:25:10;97308.06;;;6.98;91.55
75788;BME280;64406;50.024;14.492;2023-11-21T00:27:36;97310.19;;;7.01;91.34
75788;BME280;64406;50.024;14.492;2023-11-21T00:30:03;97311.28;;;7.00;91.79
75788;BME280;64406;50.024;14.492;2023-11-21T00:32:31;97307.28;;;6.97;92.06
75788;BME280;64406;50.024;14.492;2023-11-21T00:34:56;97314.75;;;7.00;92.72
75788;BME280;64406;50.024;14.492;2023-11-21T00:37:22;97317.50;;;6.90;94.13
75788;BME280;64406;50.024;14.492;2023-11-21T00:39:48;97314.31;;;6.83;95.38
75788;BME280;64406;50.024;14.492;2023-11-21T00:42:13;97317.81;;;6.78;95.74
75788;BME280;64406;50.024;14.492;2023-11-21T00:44:39;97318.63;;;6.79;96.05
75788;BME280;64406;50.024;14.492;2023-11-21T00:47:05;97328.81;;;6.77;96.61
75788;BME280;64406;50.024;14.492;2023-11-21T00:49:30;97318.41;;;6.70;97.02
75788;BME280;64406;50.024;14.492;2023-11-21T00:51:56;97321.34;;;6.74;96.00
75788;BME280;64406;50.024;14.492;2023-11-21T00:54:23;97318.13;;;6.72;97.37
75788;BME280;64406;50.024;14.492;2023-11-21T00:56:49;97326.94;;;6.72;96.63
75788;BME280;64406;50.024;14.492;2023-11-21T00:59:14;97314.66;;;6.71;97.29
75788;BME280;64406;50.024;14.492;2023-11-21T01:01:40;97318.41;;;6.70;96.89
75788;BME280;64406;50.024;14.492;2023-11-21T01:04:06;97322.97;;;6.70;97.15
75788;BME280;64406;50.024;14.492;2023-11-21T01:06:33;97319.19;;;6.71;96.86
75788;BME280;64406;50.024;14.492;2023-11-21T01:08:58;97320.81;;;6.67;97.09
75788;BME280;64406;50.024;14.492;2023-11-21T01:11:24;97325.34;;;6.71;97.11
75788;BME280;64406;50.024;14.492;2023-11-21T01:13:49;97324.56;;;6.66;96.90
75788;BME280;64406;50.024;14.492;2023-11-21T01:16:15;97318.97;;;6.62;96.78
75788;BME280;64406;50.024;14.492;2023-11-21T01:18:40;97322.50;;;6.52;97.67
75788;BME280;64406;50.024;14.492;2023-11-21T01:21:06;97321.97;;;6.50;97.92
75788;BME280;64406;50.024;14.492;2023-11-21T01:23:33;97316.63;;;6.45;98.12
75788;BME280;64406;50.024;14.492;2023-11-21T01:25:58;97313.16;;;6.50;97.77
75788;BME280;64406;50.024;14.492;2023-11-21T01:28:24;97320.63;;;6.53;97.24
75788;BME280;64406;50.024;14.492;2023-11-21T01:30:49;97328.91;;;6.51;96.89
75788;BME280;64406;50.024;14.492;2023-11-21T01:33:15;97324.38;;;6.52;97.39
75788;BME280;64406;50.024;14.492;2023-11-21T01:35:42;97322.75;;;6.56;96.37
75788;BME280;64406;50.024;14.492;2023-11-21T01:38:08;97320.09;;;6.56;95.81
75788;BME280;64406;50.024;14.492;2023-11-21T01:40:34;97321.13;;;6.60;95.64
75788;BME280;64406;50.024;14.492;2023-11-21T01:43:00;97333.69;;;6.60;96.14
75788;BME280;64406;50.024;14.492;2023-11-21T01:45:29;97330.78;;;6.61;96.02
75788;BME280;64406;50.024;14.492;2023-11-21T01:47:56;97328.03;;;6.66;95.49
75788;BME280;64406;50.024;14.492;2023-11-21T01:50:24;97329.91;;;6.66;95.08
75788;BME280;64406;50.024;14.492;2023-11-21T01:52:50;97325.13;;;6.68;94.70
75788;BME280;64406;50.024;14.492;2023-11-21T01:55:17;97336.88;;;6.67;94.45
75788;BME280;64406;50.024;14.492;2023-11-21T01:57:46;97335.81;;;6.68;94.61
75788;BME280;64406;50.024;14.492;2023-11-21T02:00:13;97328.59;;;6.68;94.84
75788;BME280;64406;50.024;14.492;2023-11-21T02:02:46;97340.09;;;6.64;94.98
75788;BME280;64406;50.024;14.492;2023-11-21T02:05:13;97332.84;;;6.69;94.31
75788;BME280;64406;50.024;14.492;2023-11-21T02:07:40;97328.03;;;6.66;94.63
75788;BME280;64406;50.024;14.492;2023-11-21T02:10:07;97333.16;;;6.63;94.48
75788;BME280;64406;50.024;14.492;2023-11-21T02:12:33;97330.78;;;6.56;95.14
75788;BME280;64406;50.024;14.492;2023-11-21T02:15:02;97333.47;;;6.56;95.08
75788;BME280;64406;50.024;14.492;2023-11-21T02:17:30;97328.38;;;6.54;95.87
75788;BME280;64406;50.024;14.492;2023-11-21T02:19:58;97329.19;;;6.55;95.37
75788;BME280;64406;50.024;14.492;2023-11-21T02:22:27;97332.69;;;6.50;96.53
75788;BME280;64406;50.024;14.492;2023-11-21T02:24:56;97330.28;;;6.54;96.61
75788;BME280;64406;50.024;14.492;2023-11-21T02:27:23;97323.59;;;6.46;97.24
75788;BME280;64406;50.024;14.492;2023-11-21T02:29:50;97327.63;;;6.39;97.59
75788;BME280;64406;50.024;14.492;2023-11-21T02:32:15;97335.94;;;6.37;97.70
75788;BME280;64406;50.024;14.492;2023-11-21T02:34:44;97330.31;;;6.39;96.96
75788;BME280;64406;50.024;14.492;2023-11-21T02:37:10;97333.53;;;6.41;97.10
75788;BME280;64406;50.024;14.492;2023-11-21T02:39:36;97327.63;;;6.39;96.78
75788;BME280;64406;50.024;14.492;2023-11-21T02:42:01;97320.97;;;6.36;97.30
75788;BME280;64406;50.024;14.492;2023-11-21T02:44:27;97327.94;;;6.32;98.49
75788;BME280;64406;50.024;14.492;2023-11-21T02:46:52;97329.00;;;6.31;97.54
75788;BME280;64406;50.024;14.492;2023-11-21T02:49:18;97319.91;;;6.32;97.77
75788;BME280;64406;50.024;14.492;2023-11-21T02:51:44;97321.50;;;6.33;97.12
75788;BME280;64406;50.024;14.492;2023-11-21T02:54:10;97331.66;;;6.36;97.39
75788;BME280;64406;50.024;14.492;2023-11-21T02:56:35;97323.38;;;6.38;96.78
75788;BME280;64406;50.024;14.492;2023-11-21T02:59:01;97321.25;;;6.35;96.85
75788;BME280;64406;50.024;14.492;2023-11-21T03:01:27;97318.03;;;6.33;97.13
75788;BME280;64406;50.024;14.492;2023-11-21T03:03:53;97314.28;;;6.34;96.68
75788;BME280;64406;50.024;14.492;2023-11-21T03:06:20;97314.81;;;6.36;96.36
75788;BME280;64406;50.024;14.492;2023-11-21T03:08:46;97317.72;;;6.39;96.61
75788;BME280;64406;50.024;14.492;2023-11-21T03:11:12;97322.56;;;6.37;95.82
75788;BME280;64406;50.024;14.492;2023-11-21T03:13:41;97317.22;;;6.32;96.63
75788;BME280;64406;50.024;14.492;2023-11-21T03:16:08;97322.34;;;6.29;96.52
75788;BME280;64406;50.024;14.492;2023-11-21T03:18:34;97323.97;;;6.19;97.06
75788;BME280;64406;50.024;14.492;2023-11-21T03:20:59;97319.44;;;6.10;97.47
75788;BME280;64406;50.024;14.492;2023-11-21T03:23:25;97327.25;;;5.96;97.76
75788;BME280;64406;50.024;14.492;2023-11-21T03:25:51;97324.00;;;5.99;98.13
75788;BME280;64406;50.024;14.492;2023-11-21T03:28:16;97316.00;;;6.04;97.80
75788;BME280;64406;50.024;14.492;2023-11-21T03:30:42;97324.00;;;6.04;97.34
75788;BME280;64406;50.024;14.492;2023-11-21T03:33:08;97325.59;;;6.05;97.47
75788;BME280;64406;50.024;14.492;2023-11-21T03:35:33;97324.00;;;6.14;96.90
75788;BME280;64406;50.024;14.492;2023-11-21T03:37:59;97323.44;;;6.17;96.35
75788;BME280;64406;50.024;14.492;2023-11-21T03:40:24;97326.38;;;6.21;96.22
75788;BME280;64406;50.024;14.492;2023-11-21T03:42:50;97329.00;;;6.26;95.67
75788;BME280;64406;50.024;14.492;2023-11-21T03:45:16;97319.91;;;6.27;96.02
75788;BME280;64406;50.024;14.492;2023-11-21T03:47:42;97329.28;;;6.30;96.29
75788;BME280;64406;50.024;14.492;2023-11-21T03:50:08;97333.28;;;6.27;96.27
75788;BME280;64406;50.024;14.492;2023-11-21T03:52:37;97337.59;;;6.28;95.53
75788;BME280;64406;50.024;14.492;2023-11-21T03:55:02;97332.47;;;6.26;95.99
75788;BME280;64406;50.024;14.492;2023-11-21T03:57:28;97338.38;;;6.29;95.54
75788;BME280;64406;50.024;14.492;2023-11-21T03:59:54;97346.66;;;6.27;96.21
75788;BME280;64406;50.024;14.492;2023-11-21T04:02:20;97344.25;;;6.25;95.33
75788;BME280;64406;50.024;14.492;2023-11-21T04:04:45;97345.34;;;6.30;95.55
75788;BME280;64406;50.024;14.492;2023-11-21T04:07:11;97348.28;;;6.28;95.71
75788;BME280;64406;50.024;14.492;2023-11-21T04:09:39;97354.44;;;6.29;94.95
75788;BME280;64406;50.024;14.492;2023-11-21T04:12:05;97349.34;;;6.27;95.50
75788;BME280;64406;50.024;14.492;2023-11-21T04:14:31;97348.53;;;6.26;95.76
75788;BME280;64406;50.024;14.492;2023-11-21T04:16:57;97346.13;;;6.25;95.69
75788;BME280;64406;50.024;14.492;2023-11-21T04:19:22;97348.56;;;6.21;96.35
75788;BME280;64406;50.024;14.492;2023-11-21T04:21:48;97345.34;;;6.24;95.53
75788;BME280;64406;50.024;14.492;2023-11-21T04:24:14;97345.06;;;6.26;96.17
75788;BME280;64406;50.024;14.492;2023-11-21T04:26:40;97354.44;;;6.29;95.17
75788;BME280;64406;50.024;14.492;2023-11-21T04:29:05;97356.84;;;6.25;95.92
75788;BME280;64406;50.024;14.492;2023-11-21T04:31:31;97355.25;;;6.24;95.12
75788;BME280;64406;50.024;14.492;2023-11-21T04:33:57;97349.88;;;6.24;95.29
75788;BME280;64406;50.024;14.492;2023-11-21T04:36:23;97350.97;;;6.23;95.88
75788;BME280;64406;50.024;14.492;2023-11-21T04:38:48;97348.56;;;6.21;95.80
75788;BME280;64406;50.024;14.492;2023-11-21T04:41:14;97349.38;;;6.22;95.99
75788;BME280;64406;50.024;14.492;2023-11-21T04:43:39;97359.00;;;6.23;96.13
75788;BME280;64406;50.024;14.492;2023-11-21T04:46:05;97354.44;;;6.23;96.04
75788;BME280;64406;50.024;14.492;2023-11-21T04:48:32;97356.03;;;6.24;96.24
75788;BME280;64406;50.024;14.492;2023-11-21T04:50:58;97355.25;;;6.24;95.77
75788;BME280;64406;50.024;14.492;2023-11-21T04:53:23;97365.41;;;6.22;95.77
75788;BME280;64406;50.024;14.492;2023-11-21T04:55:49;97357.38;;;6.22;96.09
75788;BME280;64406;50.024;14.492;2023-11-21T04:58:15;97360.31;;;6.20;96.01
75788;BME280;64406;50.024;14.492;2023-11-21T05:00:40;97354.72;;;6.17;96.36
75788;BME280;64406;50.024;14.492;2023-11-21T05:03:06;97360.59;;;6.24;96.22
75788;BME280;64406;50.024;14.492;2023-11-21T05:05:33;97369.97;;;6.21;96.64
75788;BME280;64406;50.024;14.492;2023-11-21T05:08:01;97368.09;;;6.17;97.08
75788;BME280;64406;50.024;14.492;2023-11-21T05:10:27;97364.88;;;6.20;96.18
75788;BME280;64406;50.024;14.492;2023-11-21T05:12:53;97360.88;;;6.17;96.87
75788;BME280;64406;50.024;14.492;2023-11-21T05:15:18;97364.88;;;6.20;96.94
75788;BME280;64406;50.024;14.492;2023-11-21T05:17:44;97372.09;;;6.19;96.03
75788;BME280;64406;50.024;14.492;2023-11-21T05:20:14;97370.75;;;6.22;96.82
75788;BME280;64406;50.024;14.492;2023-11-21T05:22:43;97369.16;;;6.21;96.49
75788;BME280;64406;50.024;14.492;2023-11-21T05:25:09;97367.28;;;6.16;96.67
75788;BME280;64406;50.024;14.492;2023-11-21T05:27:35;97376.13;;;6.17;97.48
75788;BME280;64406;50.024;14.492;2023-11-21T05:30:02;97374.78;;;6.14;97.40
75788;BME280;64406;50.024;14.492;2023-11-21T05:32:30;97375.59;;;6.15;97.34
75788;BME280;64406;50.024;14.492;2023-11-21T05:34:56;97383.63;;;6.15;97.44
75788;BME280;64406;50.024;14.492;2023-11-21T05:37:22;97379.31;;;6.14;97.33
75788;BME280;64406;50.024;14.492;2023-11-21T05:39:49;97381.47;;;6.12;96.87
75788;BME280;64406;50.024;14.492;2023-11-21T05:42:15;97383.88;;;6.13;97.51
75788;BME280;64406;50.024;14.492;2023-11-21T05:44:41;97377.47;;;6.14;97.54
75788;BME280;64406;50.024;14.492;2023-11-21T05:47:08;97378.25;;;6.15;97.58
75788;BME280;64406;50.024;14.492;2023-11-21T05:49:34;97385.22;;;6.16;97.29
75788;BME280;64406;50.024;14.492;2023-11-21T05:52:00;97378.78;;;6.12;97.14
75788;BME280;64406;50.024;14.492;2023-11-21T05:54:26;97377.72;;;6.13;96.70
75788;BME280;64406;50.024;14.492;2023-11-21T05:56:51;97383.34;;;6.11;96.86
75788;BME280;64406;50.024;14.492;2023-11-21T05:59:17;97387.38;;;6.09;97.48
75788;BME280;64406;50.024;14.492;2023-11-21T06:01:42;97391.63;;;6.10;97.24
75788;BME280;64406;50.024;14.492;2023-11-21T06:04:08;97388.97;;;6.10;97.36
75788;BME280;64406;50.024;14.492;2023-11-21T06:06:35;97390.84;;;6.09;97.58
75788;BME280;64406;50.024;14.492;2023-11-21T06:09:01;97390.28;;;6.07;97.82
75788;BME280;64406;50.024;14.492;2023-11-21T06:11:26;97392.72;;;6.09;97.94
75788;BME280;64406;50.024;14.492;2023-11-21T06:13:52;97405.28;;;6.08;98.05
75788;BME280;64406;50.024;14.492;2023-11-21T06:16:19;97401.81;;;6.08;97.77
75788;BME280;64406;50.024;14.492;2023-11-21T06:18:45;97406.88;;;6.09;97.54
75788;BME280;64406;50.024;14.492;2023-11-21T06:21:11;97407.69;;;6.10;97.70
75788;BME280;64406;50.024;14.492;2023-11-21T06:23:37;97405.00;;;6.10;97.57
75788;BME280;64406;50.024;14.492;2023-11-21T06:26:03;97413.81;;;6.10;97.70
75788;BME280;64406;50.024;14.492;2023-11-21T06:28:30;97414.34;;;6.07;97.30
75788;BME280;64406;50.024;14.492;2023-11-21T06:30:56;97416.78;;;6.09;97.81
75788;BME280;64406;50.024;14.492;2023-11-21T06:33:24;97422.94;;;6.09;97.63
75788;BME280;64406;50.024;14.492;2023-11-21T06:35:52;97427.72;;;6.12;96.85
75788;BME280;64406;50.024;14.492;2023-11-21T06:38:18;97423.16;;;6.13;97.42
75788;BME280;64406;50.024;14.492;2023-11-21T06:40:45;97428.50;;;6.13;97.92
75788;BME280;64406;50.024;14.492;2023-11-21T06:43:11;97428.00;;;6.16;98.56
75788;BME280;64406;50.024;14.492;2023-11-21T06:45:36;97426.63;;;6.29;97.52
75788;BME280;64406;50.024;14.492;2023-11-21T06:48:02;97429.03;;;6.25;96.91
75788;BME280;64406;50.024;14.492;2023-11-21T06:50:28;97431.72;;;6.25;96.70
75788;BME280;64406;50.024;14.492;2023-11-21T06:52:54;97441.09;;;6.28;96.42
75788;BME280;64406;50.024;14.492;2023-11-21T06:55:19;97433.59;;;6.24;96.79
75788;BME280;64406;50.024;14.492;2023-11-21T06:57:45;97436.78;;;6.26;97.20
75788;BME280;64406;50.024;14.492;2023-11-21T07:00:13;97429.03;;;6.30;96.75
75788;BME280;64406;50.024;14.492;2023-11-21T07:02:40;97433.59;;;6.24;96.71
75788;BME280;64406;50.024;14.492;2023-11-21T07:05:06;97437.84;;;6.25;96.98
75788;BME280;64406;50.024;14.492;2023-11-21T07:07:32;97446.97;;;6.30;96.81
75788;BME280;64406;50.024;14.492;2023-11-21T07:10:01;97448.84;;;6.24;96.95
75788;BME280;64406;50.024;14.492;2023-11-21T07:12:30;97447.75;;;6.25;97.08
75788;BME280;64406;50.024;14.492;2023-11-21T07:14:57;97460.06;;;6.26;97.34
75788;BME280;64406;50.024;14.492;2023-11-21T07:17:22;97451.22;;;6.31;97.22
75788;BME280;64406;50.024;14.492;2023-11-21T07:19:48;97446.69;;;6.31;97.01
75788;BME280;64406;50.024;14.492;2023-11-21T07:22:16;97460.84;;;6.32;96.48
75788;BME280;64406;50.024;14.492;2023-11-21T07:24:48;97458.97;;;6.32;97.84
75788;BME280;64406;50.024;14.492;2023-11-21T07:27:15;97459.53;;;6.24;98.35
75788;BME280;64406;50.024;14.492;2023-11-21T07:29:41;97465.69;;;6.24;97.88
75788;BME280;64406;50.024;14.492;2023-11-21T07:32:06;97464.34;;;6.22;98.48
75788;BME280;64406;50.024;14.492;2023-11-21T07:34:34;97469.16;;;6.20;99.06
75788;BME280;64406;50.024;14.492;2023-11-21T07:37:00;97457.94;;;6.23;99.37
75788;BME280;64406;50.024;14.492;2023-11-21T07:39:25;97454.47;;;6.22;98.27
75788;BME280;64406;50.024;14.492;2023-11-21T07:41:51;97460.34;;;6.14;98.81
75788;BME280;64406;50.024;14.492;2023-11-21T07:44:17;97466.50;;;6.15;99.02
75788;BME280;64406;50.024;14.492;2023-11-21T07:46:43;97459.28;;;6.10;99.89
75788;BME280;64406;50.024;14.492;2023-11-21T07:49:09;97465.97;;;6.28;99.38
75788;BME280;64406;50.024;14.492;2023-11-21T07:51:35;97465.66;;;6.45;98.13
75788;BME280;64406;50.024;14.492;2023-11-21T07:54:01;97470.44;;;6.58;97.15
75788;BME280;64406;50.024;14.492;2023-11-21T07:56:26;97480.84;;;6.75;96.38
75788;BME280;64406;50.024;14.492;2023-11-21T07:58:52;97472.25;;;6.88;95.56
75788;BME280;64406;50.024;14.492;2023-11-21T08:01:18;97473.03;;;6.94;94.91
75788;BME280;64406;50.024;14.492;2023-11-21T08:03:43;97466.31;;;6.96;94.04
75788;BME280;64406;50.024;14.492;2023-11-21T08:06:09;97470.28;;;7.09;93.88
75788;BME280;64406;50.024;14.492;2023-11-21T08:08:35;97457.38;;;7.21;92.52
75788;BME280;64406;50.024;14.492;2023-11-21T08:11:01;97472.16;;;7.14;92.57
75788;BME280;64406;50.024;14.492;2023-11-21T08:13:29;97471.34;;;7.13;92.66
75788;BME280;64406;50.024;14.492;2023-11-21T08:15:56;97475.88;;;7.13;92.62
75788;BME280;64406;50.024;14.492;2023-11-21T08:18:27;97474.44;;;7.35;91.33
75788;BME280;64406;50.024;14.492;2023-11-21T08:20:54;97464.50;;;7.41;90.81
75788;BME280;64406;50.024;14.492;2023-11-21T08:23:20;97474.72;;;7.34;92.28
75788;BME280;64406;50.024;14.492;2023-11-21T08:25:51;97486.81;;;7.26;92.44
75788;BME280;64406;50.024;14.492;2023-11-21T08:28:17;97480.88;;;7.34;91.78
75788;BME280;64406;50.024;14.492;2023-11-21T08:30:44;97477.63;;;7.43;91.52
75788;BME280;64406;50.024;14.492;2023-11-21T08:33:10;97474.66;;;7.44;90.57
75788;BME280;64406;50.024;14.492;2023-11-21T08:35:39;97478.13;;;7.45;90.93
75788;BME280;64406;50.024;14.492;2023-11-21T08:38:04;97485.09;;;7.46;90.66
75788;BME280;64406;50.024;14.492;2023-11-21T08:40:30;97471.63;;;7.61;88.98
75788;BME280;64406;50.024;14.492;2023-11-21T08:42:56;97482.38;;;7.51;88.85
75788;BME280;64406;50.024;14.492;2023-11-21T08:45:27;97480.56;;;7.46;87.83
75788;BME280;64406;50.024;14.492;2023-11-21T08:47:53;97490.19;;;7.47;88.48
75788;BME280;64406;50.024;14.492;2023-11-21T08:50:19;97488.06;;;7.44;89.02
75788;BME280;64406;50.024;14.492;2023-11-21T08:52:45;97499.50;;;7.60;89.75
75788;BME280;64406;50.024;14.492;2023-11-21T08:55:15;97501.28;;;7.75;89.48
75788;BME280;64406;50.024;14.492;2023-11-21T08:57:43;97506.13;;;7.73;88.34
75788;BME280;64406;50.024;14.492;2023-11-21T09:00:10;97511.13;;;7.84;88.25
75788;BME280;64406;50.024;14.492;2023-11-21T09:02:43;97500.22;;;7.71;87.25
75788;BME280;64406;50.024;14.492;2023-11-21T09:05:13;97510.91;;;7.76;87.46
75788;BME280;64406;50.024;14.492;2023-11-21T09:07:40;97504.50;;;7.72;87.28
75788;BME280;64406;50.024;14.492;2023-11-21T09:10:07;97503.81;;;7.51;87.02
75788;BME280;64406;50.024;14.492;2023-11-21T09:12:35;97513.50;;;7.47;87.31
75788;BME280;64406;50.024;14.492;2023-11-21T09:15:02;97516.63;;;7.64;87.83
75788;BME280;64406;50.024;14.492;2023-11-21T09:17:30;97523.84;;;7.63;86.85
75788;BME280;64406;50.024;14.492;2023-11-21T09:19:55;97527.06;;;7.66;87.28
75788;BME280;64406;50.024;14.492;2023-11-21T09:22:22;97525.75;;;7.58;87.26
75788;BME280;64406;50.024;14.492;2023-11-21T09:24:51;97526.03;;;7.56;87.75
75788;BME280;64406;50.024;14.492;2023-11-21T09:27:17;97522.31;;;7.52;88.19
75788;BME280;64406;50.024;14.492;2023-11-21T09:29:43;97526.81;;;7.67;88.39
75788;BME280;64406;50.024;14.492;2023-11-21T09:32:08;97526.22;;;7.75;87.88
75788;BME280;64406;50.024;14.492;2023-11-21T09:34:40;97529.69;;;7.76;87.47
75788;BME280;64406;50.024;14.492;2023-11-21T09:37:05;97532.88;;;7.78;87.00
75788;BME280;64406;50.024;14.492;2023-11-21T09:39:34;97536.63;;;7.82;87.43
75788;BME280;64406;50.024;14.492;2023-11-21T09:42:16;97537.75;;;7.71;87.35
75788;BME280;64406;50.024;14.492;2023-11-21T09:45:05;97543.91;;;7.71;87.96
75788;BME280;64406;50.024;14.492;2023-11-21T09:47:38;97538.22;;;7.83;88.03
75788;BME280;64406;50.024;14.492;2023-11-21T09:50:07;97538.31;;;7.73;86.84
75788;BME280;64406;50.024;14.492;2023-11-21T09:53:08;97547.38;;;7.72;88.07
75788;BME280;64406;50.024;14.492;2023-11-21T09:55:32;97543.69;;;7.68;87.42
75788;BME280;64406;50.024;14.492;2023-11-21T09:58:02;97543.88;;;7.81;87.60
75788;BME280;64406;50.024;14.492;2023-11-21T10:00:29;97543.59;;;7.83;86.96
75788;BME280;64406;50.024;14.492;2023-11-21T10:02:58;97542.78;;;7.82;86.31
75788;BME280;64406;50.024;14.492;2023-11-21T10:05:25;97543.31;;;7.84;86.42
75788;BME280;64406;50.024;14.492;2023-11-21T10:07:51;97545.66;;;7.96;86.46
75788;BME280;64406;50.024;14.492;2023-11-21T10:10:21;97545.69;;;7.91;85.00
75788;BME280;64406;50.024;14.492;2023-11-21T10:12:50;97543.84;;;7.86;84.71
75788;BME280;64406;50.024;14.492;2023-11-21T10:15:23;97543.84;;;7.86;85.54
75788;BME280;64406;50.024;14.492;2023-11-21T10:17:52;97543.44;;;8.03;84.63
75788;BME280;64406;50.024;14.492;2023-11-21T10:20:20;97543.13;;;8.10;83.98
75788;BME280;64406;50.024;14.492;2023-11-21T10:22:45;97537.00;;;8.04;83.90
75788;BME280;64406;50.024;14.492;2023-11-21T10:25:12;97544.03;;;8.39;83.59
75788;BME280;64406;50.024;14.492;2023-11-21T10:27:42;97548.81;;;8.42;82.75
75788;BME280;64406;50.024;14.492;2023-11-21T10:30:09;97545.91;;;8.39;81.79
75788;BME280;64406;50.024;14.492;2023-11-21T10:32:41;97546.47;;;8.31;81.57
75788;BME280;64406;50.024;14.492;2023-11-21T10:35:11;97543.25;;;8.34;81.80
75788;BME280;64406;50.024;14.492;2023-11-21T10:37:37;97542.44;;;8.33;81.09
75788;BME280;64406;50.024;14.492;2023-11-21T10:40:07;97542.66;;;8.42;81.08
75788;BME280;64406;50.024;14.492;2023-11-21T10:42:33;97541.34;;;8.39;79.20
75788;BME280;64406;50.024;14.492;2023-11-21T10:44:59;97547.13;;;8.52;78.51
75788;BME280;64406;50.024;14.492;2023-11-21T10:47:26;97538.38;;;8.41;79.20
75788;BME280;64406;50.024;14.492;2023-11-21T10:49:52;97545.03;;;8.49;78.72
75788;BME280;64406;50.024;14.492;2023-11-21T10:52:20;97541.09;;;8.31;78.02
75788;BME280;64406;50.024;14.492;2023-11-21T10:54:46;97541.72;;;8.23;76.96
75788;BME280;64406;50.024;14.492;2023-11-21T10:57:17;97545.13;;;8.33;78.09
75788;BME280;64406;50.024;14.492;2023-11-21T10:59:46;97544.91;;;8.25;79.60
75788;BME280;64406;50.024;14.492;2023-11-21T11:02:27;97545.38;;;8.32;79.95
75788;BME280;64406;50.024;14.492;2023-11-21T11:04:54;97540.41;;;8.20;78.97
75788;BME280;64406;50.024;14.492;2023-11-21T11:07:26;97533.44;;;8.19;77.92
75788;BME280;64406;50.024;14.492;2023-11-21T11:09:54;97533.84;;;8.31;78.03
75788;BME280;64406;50.024;14.492;2023-11-21T11:12:20;97530.28;;;8.46;78.43
75788;BME280;64406;50.024;14.492;2023-11-21T11:14:48;97536.25;;;8.38;76.78
75788;BME280;64406;50.024;14.492;2023-11-21T11:17:14;97531.94;;;8.42;76.43
75788;BME280;64406;50.024;14.492;2023-11-21T11:19:39;97533.47;;;8.48;74.87
75788;BME280;64406;50.024;14.492;2023-11-21T11:22:19;97518.69;;;8.51;74.71
75788;BME280;64406;50.024;14.492;2023-11-21T11:25:16;97528.31;;;8.86;73.95
75788;BME280;64406;50.024;14.492;2023-11-21T11:28:04;97523.56;;;9.02;73.52
75788;BME280;64406;50.024;14.492;2023-11-21T11:30:57;97533.75;;;9.05;72.50
75788;BME280;64406;50.024;14.492;2023-11-21T11:33:41;97529.00;;;8.67;72.25
75788;BME280;64406;50.024;14.492;2023-11-21T11:36:16;97527.09;;;8.73;73.34
75788;BME280;64406;50.024;14.492;2023-11-21T11:38:46;97523.72;;;9.34;72.32
75788;BME280;64406;50.024;14.492;2023-11-21T11:41:12;97521.50;;;9.17;72.16
75788;BME280;64406;50.024;14.492;2023-11-21T11:43:38;97519.53;;;9.47;71.39
75788;BME280;64406;50.024;14.492;2023-11-21T11:46:11;97525.50;;;9.20;71.28
75788;BME280;64406;50.024;14.492;2023-11-21T11:48:39;97529.59;;;9.36;71.02
75788;BME280;64406;50.024;14.492;2023-11-21T11:51:10;97530.31;;;8.99;71.53
75788;BME280;64406;50.024;14.492;2023-11-21T11:53:44;97529.91;;;8.87;72.78
75788;BME280;64406;50.024;14.492;2023-11-21T11:56:27;97538.13;;;8.95;73.22
75788;BME280;64406;50.024;14.492;2023-11-21T11:58:59;97530.22;;;9.04;72.24
75788;BME280;64406;50.024;14.492;2023-11-21T12:01:26;97526.75;;;9.27;71.52
75788;BME280;64406;50.024;14.492;2023-11-21T12:06:43;97533.84;;;8.94;72.28
75788;BME280;64406;50.024;14.492;2023-11-21T12:09:18;97533.75;;;9.05;72.28
75788;BME280;64406;50.024;14.492;2023-11-21T12:11:45;97530.56;;;8.97;72.42
75788;BME280;64406;50.024;14.492;2023-11-21T12:14:16;97529.00;;;8.67;72.51
75788;BME280;64406;50.024;14.492;2023-11-21T12:16:42;97528.34;;;8.52;73.29
75788;BME280;64406;50.024;14.492;2023-11-21T12:19:12;97530.47;;;8.55;73.28
75788;BME280;64406;50.024;14.492;2023-11-21T12:21:38;97525.97;;;8.45;73.52
75788;BME280;64406;50.024;14.492;2023-11-21T12:24:06;97528.13;;;8.48;73.64
75788;BME280;64406;50.024;14.492;2023-11-21T12:26:37;97532.53;;;8.63;71.30
75788;BME280;64406;50.024;14.492;2023-11-21T12:29:03;97535.81;;;8.60;70.24
75788;BME280;64406;50.024;14.492;2023-11-21T12:31:30;97536.38;;;8.86;68.80
75788;BME280;64406;50.024;14.492;2023-11-21T12:33:56;97540.53;;;8.97;67.11
75788;BME280;64406;50.024;14.492;2023-11-21T12:36:23;97541.72;;;9.10;66.68
75788;BME280;64406;50.024;14.492;2023-11-21T12:38:49;97540.06;;;8.90;67.78
75788;BME280;64406;50.024;14.492;2023-11-21T12:41:16;97543.53;;;8.90;66.80
75788;BME280;64406;50.024;14.492;2023-11-21T12:43:42;97549.41;;;8.68;67.70
75788;BME280;64406;50.024;14.492;2023-11-21T12:46:10;97549.41;;;8.34;67.86
75788;BME280;64406;50.024;14.492;2023-11-21T12:48:41;97550.84;;;8.22;68.80
75788;BME280;64406;50.024;14.492;2023-11-21T12:51:10;97551.91;;;8.26;69.11
75788;BME280;64406;50.024;14.492;2023-11-21T12:53:44;97544.38;;;8.23;70.33
75788;BME280;64406;50.024;14.492;2023-11-21T12:56:13;97554.59;;;8.21;70.56
75788;BME280;64406;50.024;14.492;2023-11-21T12:58:40;97550.25;;;8.25;70.79
75788;BME280;64406;50.024;14.492;2023-11-21T13:01:12;97555.69;;;8.20;71.41
75788;BME280;64406;50.024;14.492;2023-11-21T13:03:43;97545.22;;;8.18;72.47